sensor_id;sensor_type;location;lat;lon;timestamp;pressure;altitude;pressure_sealevel;temperature;humidity
68654;BME280;55636;51.108;13.622;2023-02-19T00:00:21;100267.44;;;8.98;63.81
68654;BME280;55636;51.108;13.622;2023-02-19T00:01:28;100267.44;;;8.98;63.90
68654;BME280;55636;51.108;13.622;2023-02-19T00:02:32;100262.44;;;8.95;63.86
68654;BME280;55636;51.108;13.622;2023-02-19T00:03:37;100258.28;;;8.93;63.79
68654;BME280;55636;51.108;13.622;2023-02-19T00:04:40;100259.09;;;8.93;63.79
68654;BME280;55636;51.108;13.622;2023-02-19T00:05:43;100259.34;;;8.92;63.69
68654;BME280;55636;51.108;13.622;2023-02-19T00:06:46;100254.66;;;8.92;63.80
68654;BME280;55636;51.108;13.622;2023-02-19T00:07:49;100255.53;;;8.93;63.92
68654;BME280;55636;51.108;13.622;2023-02-19T00:08:54;100255.53;;;8.93;63.87
68654;BME280;55636;51.108;13.622;2023-02-19T00:09:56;100257.41;;;8.92;63.98
68654;BME280;55636;51.108;13.622;2023-02-19T00:11:04;100248.34;;;8.92;63.90
68654;BME280;55636;51.108;13.622;2023-02-19T00:12:06;100250.50;;;8.90;63.77
68654;BME280;55636;51.108;13.622;2023-02-19T00:13:09;100246.66;;;8.91;63.79
68654;BME280;55636;51.108;13.622;2023-02-19T00:14:15;100246.66;;;8.91;63.87
68654;BME280;55636;51.108;13.622;2023-02-19T00:15:19;100248.00;;;8.88;63.92
68654;BME280;55636;51.108;13.622;2023-02-19T00:16:26;100241.41;;;8.89;63.90
68654;BME280;55636;51.108;13.622;2023-02-19T00:17:30;100246.66;;;8.91;63.87
68654;BME280;55636;51.108;13.622;2023-02-19T00:18:32;100239.00;;;8.93;63.69
68654;BME280;55636;51.108;13.622;2023-02-19T00:19:35;100242.00;;;8.91;63.91
68654;BME280;55636;51.108;13.622;2023-02-19T00:20:38;100235.91;;;8.89;63.83
68654;BME280;55636;51.108;13.622;2023-02-19T00:21:41;100238.66;;;8.89;63.84
68654;BME280;55636;51.108;13.622;2023-02-19T00:22:44;100240.31;;;8.90;63.92
68654;BME280;55636;51.108;13.622;2023-02-19T00:23:48;100230.66;;;8.87;64.05
68654;BME280;55636;51.108;13.622;2023-02-19T00:24:51;100233.66;;;8.86;64.00
68654;BME280;55636;51.108;13.622;2023-02-19T00:25:54;100236.41;;;8.86;63.96
68654;BME280;55636;51.108;13.622;2023-02-19T00:26:56;100236.16;;;8.87;63.92
68654;BME280;55636;51.108;13.622;2023-02-19T00:27:58;100225.97;;;8.88;63.88
68654;BME280;55636;51.108;13.622;2023-02-19T00:29:01;100236.97;;;8.88;63.91
68654;BME280;55636;51.108;13.622;2023-02-19T00:30:03;100226.22;;;8.86;64.00
68654;BME280;55636;51.108;13.622;2023-02-19T00:31:20;100231.72;;;8.86;64.08
68654;BME280;55636;51.108;13.622;2023-02-19T00:32:25;100230.06;;;8.85;64.04
68654;BME280;55636;51.108;13.622;2023-02-19T00:33:27;100234.47;;;8.86;64.02
68654;BME280;55636;51.108;13.622;2023-02-19T00:34:30;100227.56;;;8.84;64.21
68654;BME280;55636;51.108;13.622;2023-02-19T00:35:35;100223.47;;;8.86;64.25
68654;BME280;55636;51.108;13.622;2023-02-19T00:36:39;100229.22;;;8.85;64.14
68654;BME280;55636;51.108;13.622;2023-02-19T00:37:43;100221.78;;;8.85;64.30
68654;BME280;55636;51.108;13.622;2023-02-19T00:38:46;100228.16;;;8.86;64.22
68654;BME280;55636;51.108;13.622;2023-02-19T00:39:48;100231.72;;;8.86;64.28
68654;BME280;55636;51.108;13.622;2023-02-19T00:40:51;100227.03;;;8.87;64.48
68654;BME280;55636;51.108;13.622;2023-02-19T00:41:56;100225.97;;;8.88;64.26
68654;BME280;55636;51.108;13.622;2023-02-19T00:43:00;100226.81;;;8.88;64.23
68654;BME280;55636;51.108;13.622;2023-02-19T00:44:06;100214.94;;;8.88;64.07
68654;BME280;55636;51.108;13.622;2023-02-19T00:45:08;100219.63;;;8.87;64.23
68654;BME280;55636;51.108;13.622;2023-02-19T00:46:11;100218.53;;;8.88;64.17
68654;BME280;55636;51.108;13.622;2023-02-19T00:47:13;100213.03;;;8.88;64.29
68654;BME280;55636;51.108;13.622;2023-02-19T00:48:16;100213.03;;;8.88;64.23
68654;BME280;55636;51.108;13.622;2023-02-19T00:49:20;100216.88;;;8.87;64.22
68654;BME280;55636;51.108;13.622;2023-02-19T00:50:23;100217.69;;;8.88;64.27
68654;BME280;55636;51.108;13.622;2023-02-19T00:51:31;100227.88;;;8.87;64.19
68654;BME280;55636;51.108;13.622;2023-02-19T00:52:36;100216.63;;;8.89;64.14
68654;BME280;55636;51.108;13.622;2023-02-19T00:53:39;100211.38;;;8.87;64.27
68654;BME280;55636;51.108;13.622;2023-02-19T00:54:41;100213.03;;;8.88;64.05
68654;BME280;55636;51.108;13.622;2023-02-19T00:55:44;100214.13;;;8.87;64.06
68654;BME280;55636;51.108;13.622;2023-02-19T00:56:47;100211.84;;;8.84;64.17
68654;BME280;55636;51.108;13.622;2023-02-19T00:57:49;100211.53;;;8.81;64.20
68654;BME280;55636;51.108;13.622;2023-02-19T00:58:52;100220.03;;;8.79;64.25
68654;BME280;55636;51.108;13.622;2023-02-19T00:59:55;100208.19;;;8.79;64.29
68654;BME280;55636;51.108;13.622;2023-02-19T01:00:57;100208.44;;;8.77;64.26
68654;BME280;55636;51.108;13.622;2023-02-19T01:01:59;100212.63;;;8.80;64.21
68654;BME280;55636;51.108;13.622;2023-02-19T01:03:03;100205.44;;;8.79;64.22
68654;BME280;55636;51.108;13.622;2023-02-19T01:04:05;100211.78;;;8.79;64.21
68654;BME280;55636;51.108;13.622;2023-02-19T01:05:08;100212.63;;;8.80;64.19
68654;BME280;55636;51.108;13.622;2023-02-19T01:06:12;100210.69;;;8.80;63.95
68654;BME280;55636;51.108;13.622;2023-02-19T01:07:15;100209.63;;;8.81;64.01
68654;BME280;55636;51.108;13.622;2023-02-19T01:08:18;100198.84;;;8.80;64.02
68654;BME280;55636;51.108;13.622;2023-02-19T01:09:20;100204.34;;;8.80;64.12
68654;BME280;55636;51.108;13.622;2023-02-19T01:10:23;100208.78;;;8.81;64.16
68654;BME280;55636;51.108;13.622;2023-02-19T01:11:25;100204.09;;;8.81;64.03
68654;BME280;55636;51.108;13.622;2023-02-19T01:12:30;100201.94;;;8.83;64.08
68654;BME280;55636;51.108;13.622;2023-02-19T01:13:33;100196.66;;;8.82;64.08
68654;BME280;55636;51.108;13.622;2023-02-19T01:14:35;100196.44;;;8.83;64.17
68654;BME280;55636;51.108;13.622;2023-02-19T01:15:38;100192.81;;;8.83;64.12
68654;BME280;55636;51.108;13.622;2023-02-19T01:16:40;100192.56;;;8.84;64.06
68654;BME280;55636;51.108;13.622;2023-02-19T01:17:44;100181.81;;;8.83;64.10
68654;BME280;55636;51.108;13.622;2023-02-19T01:18:49;100184.31;;;8.84;64.00
68654;BME280;55636;51.108;13.622;2023-02-19T01:19:52;100179.91;;;8.83;64.18
68654;BME280;55636;51.108;13.622;2023-02-19T01:20:55;100177.97;;;8.84;64.01
68654;BME280;55636;51.108;13.622;2023-02-19T01:21:58;100175.22;;;8.84;64.01
68654;BME280;55636;51.108;13.622;2023-02-19T01:23:00;100176.91;;;8.85;64.05
68654;BME280;55636;51.108;13.622;2023-02-19T01:24:04;100176.91;;;8.85;63.95
68654;BME280;55636;51.108;13.622;2023-02-19T01:25:06;100180.47;;;8.85;63.99
68654;BME280;55636;51.108;13.622;2023-02-19T01:26:14;100182.16;;;8.86;63.92
68654;BME280;55636;51.108;13.622;2023-02-19T01:27:17;100173.28;;;8.84;64.05
68654;BME280;55636;51.108;13.622;2023-02-19T01:28:20;100174.97;;;8.85;63.96
68654;BME280;55636;51.108;13.622;2023-02-19T01:29:23;100166.69;;;8.85;63.87
68654;BME280;55636;51.108;13.622;2023-02-19T01:30:26;100167.28;;;8.87;63.83
68654;BME280;55636;51.108;13.622;2023-02-19T01:31:30;100163.44;;;8.88;63.88
68654;BME280;55636;51.108;13.622;2023-02-19T01:32:34;100157.94;;;8.88;63.69
68654;BME280;55636;51.108;13.622;2023-02-19T01:33:36;100156.28;;;8.87;63.91
68654;BME280;55636;51.108;13.622;2023-02-19T01:34:38;100149.69;;;8.88;63.95
68654;BME280;55636;51.108;13.622;2023-02-19T01:35:41;100154.06;;;8.90;63.89
68654;BME280;55636;51.108;13.622;2023-02-19T01:36:43;100146.06;;;8.88;63.90
68654;BME280;55636;51.108;13.622;2023-02-19T01:37:46;100147.16;;;8.87;63.90
68654;BME280;55636;51.108;13.622;2023-02-19T01:38:48;100155.19;;;8.88;63.76
68654;BME280;55636;51.108;13.622;2023-02-19T01:39:50;100141.66;;;8.87;63.85
68654;BME280;55636;51.108;13.622;2023-02-19T01:40:58;100146.00;;;8.83;64.08
68654;BME280;55636;51.108;13.622;2023-02-19T01:42:01;100144.31;;;8.82;64.22
68654;BME280;55636;51.108;13.622;2023-02-19T01:43:07;100137.47;;;8.84;64.25
68654;BME280;55636;51.108;13.622;2023-02-19T01:46:32;100138.81;;;8.82;64.30
68654;BME280;55636;51.108;13.622;2023-02-19T01:47:35;100143.50;;;8.81;64.36
68654;BME280;55636;51.108;13.622;2023-02-19T01:48:39;100145.66;;;8.79;64.47
68654;BME280;55636;51.108;13.622;2023-02-19T01:49:46;100139.06;;;8.80;64.45
68654;BME280;55636;51.108;13.622;2023-02-19T01:50:57;100139.06;;;8.80;64.57
68654;BME280;55636;51.108;13.622;2023-02-19T01:52:15;100136.31;;;8.80;64.69
68654;BME280;55636;51.108;13.622;2023-02-19T01:53:22;100141.84;;;8.80;64.75
68654;BME280;55636;51.108;13.622;2023-02-19T01:54:27;100137.41;;;8.79;64.71
68654;BME280;55636;51.108;13.622;2023-02-19T01:55:32;100128.31;;;8.79;64.71
68654;BME280;55636;51.108;13.622;2023-02-19T01:56:36;100134.91;;;8.78;65.03
68654;BME280;55636;51.108;13.622;2023-02-19T01:57:44;100146.78;;;8.78;65.04
68654;BME280;55636;51.108;13.622;2023-02-19T01:58:51;100143.19;;;8.78;65.06
68654;BME280;55636;51.108;13.622;2023-02-19T01:59:57;100140.41;;;8.78;65.13
68654;BME280;55636;51.108;13.622;2023-02-19T02:01:13;100131.34;;;8.77;65.18
68654;BME280;55636;51.108;13.622;2023-02-19T02:02:16;100133.81;;;8.79;65.21
68654;BME280;55636;51.108;13.622;2023-02-19T02:03:19;100140.16;;;8.79;65.25
68654;BME280;55636;51.108;13.622;2023-02-19T02:04:21;100136.59;;;8.79;65.29
68654;BME280;55636;51.108;13.622;2023-02-19T02:05:34;100133.00;;;8.78;65.61
68654;BME280;55636;51.108;13.622;2023-02-19T02:06:43;100131.91;;;8.79;65.62
68654;BME280;55636;51.108;13.622;2023-02-19T02:07:49;100128.06;;;8.80;65.48
68654;BME280;55636;51.108;13.622;2023-02-19T02:09:10;100126.38;;;8.79;65.58
68654;BME280;55636;51.108;13.622;2023-02-19T02:10:31;100125.31;;;8.80;65.64
68654;BME280;55636;51.108;13.622;2023-02-19T02:11:35;100127.25;;;8.80;65.83
68654;BME280;55636;51.108;13.622;2023-02-19T02:12:37;100125.31;;;8.80;65.76
68654;BME280;55636;51.108;13.622;2023-02-19T02:13:40;100139.06;;;8.80;65.83
68654;BME280;55636;51.108;13.622;2023-02-19T02:14:44;100126.97;;;8.81;65.84
68654;BME280;55636;51.108;13.622;2023-02-19T02:16:01;100118.13;;;8.79;66.03
68654;BME280;55636;51.108;13.622;2023-02-19T02:17:24;100115.38;;;8.79;65.95
68654;BME280;55636;51.108;13.622;2023-02-19T02:18:53;100120.31;;;8.77;66.13
68654;BME280;55636;51.108;13.622;2023-02-19T02:30:16;100110.22;;;8.66;66.62
68654;BME280;55636;51.108;13.622;2023-02-19T02:31:32;100107.13;;;8.62;66.81
68654;BME280;55636;51.108;13.622;2023-02-19T02:32:50;100108.47;;;8.60;66.91
68654;BME280;55636;51.108;13.622;2023-02-19T02:34:04;100107.63;;;8.59;67.03
68654;BME280;55636;51.108;13.622;2023-02-19T02:35:10;100101.81;;;8.55;67.01
68654;BME280;55636;51.108;13.622;2023-02-19T02:36:20;100089.63;;;8.51;67.20
68654;BME280;55636;51.108;13.622;2023-02-19T02:37:25;100089.28;;;8.48;67.49
68654;BME280;55636;51.108;13.622;2023-02-19T02:38:32;100088.72;;;8.46;67.43
68654;BME280;55636;51.108;13.622;2023-02-19T02:39:36;100087.31;;;8.43;67.80
68654;BME280;55636;51.108;13.622;2023-02-19T02:40:42;100086.47;;;8.43;67.60
68654;BME280;55636;51.108;13.622;2023-02-19T02:41:55;100087.25;;;8.38;68.07
68654;BME280;55636;51.108;13.622;2023-02-19T02:43:24;100082.56;;;8.38;67.77
68654;BME280;55636;51.108;13.622;2023-02-19T02:44:34;100083.41;;;8.39;67.81
68654;BME280;55636;51.108;13.622;2023-02-19T02:45:39;100086.72;;;8.41;67.85
68654;BME280;55636;51.108;13.622;2023-02-19T02:46:51;100092.50;;;8.39;67.87
68654;BME280;55636;51.108;13.622;2023-02-19T02:47:56;100073.22;;;8.39;67.91
68654;BME280;55636;51.108;13.622;2023-02-19T02:49:08;100076.25;;;8.38;68.24
68654;BME280;55636;51.108;13.622;2023-02-19T02:50:24;100079.25;;;8.36;68.23
68654;BME280;55636;51.108;13.622;2023-02-19T02:51:40;100076.50;;;8.36;68.08
68654;BME280;55636;51.108;13.622;2023-02-19T02:52:55;100075.63;;;8.36;68.10
68654;BME280;55636;51.108;13.622;2023-02-19T02:54:22;100068.78;;;8.38;67.84
68654;BME280;55636;51.108;13.622;2023-02-19T02:55:50;100071.56;;;8.38;67.88
68654;BME280;55636;51.108;13.622;2023-02-19T02:56:55;100064.16;;;8.39;67.81
68654;BME280;55636;51.108;13.622;2023-02-19T02:57:57;100053.13;;;8.39;67.83
68654;BME280;55636;51.108;13.622;2023-02-19T02:59:03;100058.38;;;8.41;67.75
68654;BME280;55636;51.108;13.622;2023-02-19T03:00:07;100058.63;;;8.39;67.93
68654;BME280;55636;51.108;13.622;2023-02-19T03:01:13;100057.78;;;8.38;68.06
68654;BME280;55636;51.108;13.622;2023-02-19T03:02:36;100056.97;;;8.38;67.79
68654;BME280;55636;51.108;13.622;2023-02-19T03:03:41;100060.28;;;8.40;68.05
68654;BME280;55636;51.108;13.622;2023-02-19T03:06:27;100049.53;;;8.38;67.69
68654;BME280;55636;51.108;13.622;2023-02-19T03:08:08;100061.06;;;8.35;67.84
68654;BME280;55636;51.108;13.622;2023-02-19T03:09:29;100061.06;;;8.35;67.87
68654;BME280;55636;51.108;13.622;2023-02-19T03:10:40;100053.63;;;8.36;68.02
68654;BME280;55636;51.108;13.622;2023-02-19T03:11:45;100054.97;;;8.33;67.90
68654;BME280;55636;51.108;13.622;2023-02-19T03:13:33;100047.28;;;8.35;67.78
68654;BME280;55636;51.108;13.622;2023-02-19T03:15:01;100052.22;;;8.33;67.86
68654;BME280;55636;51.108;13.622;2023-02-19T03:16:29;100045.63;;;8.34;67.79
68654;BME280;55636;51.108;13.622;2023-02-19T03:18:00;100051.94;;;8.35;67.77
68654;BME280;55636;51.108;13.622;2023-02-19T03:19:24;100046.72;;;8.33;67.75
68654;BME280;55636;51.108;13.622;2023-02-19T03:20:29;100040.13;;;8.34;67.88
68654;BME280;55636;51.108;13.622;2023-02-19T03:21:34;100034.63;;;8.34;67.84
68654;BME280;55636;51.108;13.622;2023-02-19T03:22:43;100039.31;;;8.34;67.87
68654;BME280;55636;51.108;13.622;2023-02-19T03:23:47;100039.03;;;8.35;67.89
68654;BME280;55636;51.108;13.622;2023-02-19T03:25:13;100040.94;;;8.35;67.87
68654;BME280;55636;51.108;13.622;2023-02-19T03:26:40;100032.69;;;8.35;67.83
68654;BME280;55636;51.108;13.622;2023-02-19T03:27:45;100030.78;;;8.35;67.92
68654;BME280;55636;51.108;13.622;2023-02-19T03:28:50;100029.94;;;8.35;67.97
68654;BME280;55636;51.108;13.622;2023-02-19T03:30:19;100031.59;;;8.36;67.96
68654;BME280;55636;51.108;13.622;2023-02-19T03:31:26;100025.84;;;8.37;67.87
68654;BME280;55636;51.108;13.622;2023-02-19T03:32:41;100034.94;;;8.38;68.02
68654;BME280;55636;51.108;13.622;2023-02-19T03:33:49;100030.25;;;8.38;67.85
68654;BME280;55636;51.108;13.622;2023-02-19T03:35:12;100028.59;;;8.37;67.94
68654;BME280;55636;51.108;13.622;2023-02-19T03:36:16;100025.63;;;8.39;67.82
68654;BME280;55636;51.108;13.622;2023-02-19T03:37:29;100030.00;;;8.40;67.84
68654;BME280;55636;51.108;13.622;2023-02-19T03:39:02;100020.94;;;8.39;67.67
68654;BME280;55636;51.108;13.622;2023-02-19T03:40:04;100020.94;;;8.39;67.75
68654;BME280;55636;51.108;13.622;2023-02-19T03:42:53;100026.44;;;8.39;67.65
68654;BME280;55636;51.108;13.622;2023-02-19T03:44:29;100019.25;;;8.38;67.66
68654;BME280;55636;51.108;13.622;2023-02-19T03:45:52;100015.16;;;8.41;67.71
68654;BME280;55636;51.108;13.622;2023-02-19T03:47:04;100014.34;;;8.41;67.70
68654;BME280;55636;51.108;13.622;2023-02-19T03:48:21;100015.41;;;8.39;67.70
68654;BME280;55636;51.108;13.622;2023-02-19T03:49:37;100017.34;;;8.39;67.96
68654;BME280;55636;51.108;13.622;2023-02-19T03:50:46;100012.94;;;8.38;67.85
68654;BME280;55636;51.108;13.622;2023-02-19T03:52:02;100011.84;;;8.39;67.89
68654;BME280;55636;51.108;13.622;2023-02-19T03:55:04;100001.06;;;8.37;67.84
68654;BME280;55636;51.108;13.622;2023-02-19T03:56:33;100001.91;;;8.38;67.78
68654;BME280;55636;51.108;13.622;2023-02-19T03:57:46;100000.25;;;8.37;67.83
68654;BME280;55636;51.108;13.622;2023-02-19T03:59:00;100003.81;;;8.37;67.83
68654;BME280;55636;51.108;13.622;2023-02-19T04:00:17;99995.56;;;8.37;67.85
68654;BME280;55636;51.108;13.622;2023-02-19T04:01:49;99991.16;;;8.36;67.96
68654;BME280;55636;51.108;13.622;2023-02-19T04:02:59;99994.75;;;8.37;67.79
68654;BME280;55636;51.108;13.622;2023-02-19T04:04:26;99987.31;;;8.37;67.77
68654;BME280;55636;51.108;13.622;2023-02-19T04:05:32;99994.75;;;8.37;67.80
68654;BME280;55636;51.108;13.622;2023-02-19T04:06:38;99992.00;;;8.37;67.66
68654;BME280;55636;51.108;13.622;2023-02-19T04:07:48;99995.56;;;8.37;67.73
68654;BME280;55636;51.108;13.622;2023-02-19T04:09:00;99995.56;;;8.37;67.84
68654;BME280;55636;51.108;13.622;2023-02-19T04:10:06;99988.41;;;8.36;67.84
68654;BME280;55636;51.108;13.622;2023-02-19T04:11:13;99982.91;;;8.36;67.79
68654;BME280;55636;51.108;13.622;2023-02-19T04:12:18;99986.50;;;8.37;67.79
68654;BME280;55636;51.108;13.622;2023-02-19T04:13:36;99982.06;;;8.36;67.82
68654;BME280;55636;51.108;13.622;2023-02-19T04:14:53;99985.66;;;8.36;67.74
68654;BME280;55636;51.108;13.622;2023-02-19T04:16:07;99980.16;;;8.36;67.62
68654;BME280;55636;51.108;13.622;2023-02-19T04:17:38;99982.06;;;8.36;67.76
68654;BME280;55636;51.108;13.622;2023-02-19T04:18:47;99979.31;;;8.36;67.66
68654;BME280;55636;51.108;13.622;2023-02-19T04:19:52;99981.25;;;8.35;67.65
68654;BME280;55636;51.108;13.622;2023-02-19T04:20:56;99974.88;;;8.35;67.62
68654;BME280;55636;51.108;13.622;2023-02-19T04:22:03;99975.75;;;8.35;67.76
68654;BME280;55636;51.108;13.622;2023-02-19T04:23:07;99975.75;;;8.35;67.58
68654;BME280;55636;51.108;13.622;2023-02-19T04:24:17;99968.56;;;8.34;67.70
68654;BME280;55636;51.108;13.622;2023-02-19T04:25:25;99974.06;;;8.34;67.80
68654;BME280;55636;51.108;13.622;2023-02-19T04:26:28;99972.41;;;8.33;67.63
68654;BME280;55636;51.108;13.622;2023-02-19T04:27:43;99971.56;;;8.33;67.71
68654;BME280;55636;51.108;13.622;2023-02-19T04:28:46;99982.84;;;8.31;67.71
68654;BME280;55636;51.108;13.622;2023-02-19T04:29:49;99973.75;;;8.31;67.78
68654;BME280;55636;51.108;13.622;2023-02-19T04:30:51;99962.47;;;8.32;67.69
68654;BME280;55636;51.108;13.622;2023-02-19T04:31:54;99974.31;;;8.33;67.84
68654;BME280;55636;51.108;13.622;2023-02-19T04:32:56;99957.22;;;8.31;67.86
68654;BME280;55636;51.108;13.622;2023-02-19T04:34:01;99964.66;;;8.30;67.87
68654;BME280;55636;51.108;13.622;2023-02-19T04:35:05;99972.06;;;8.30;67.85
68654;BME280;55636;51.108;13.622;2023-02-19T04:36:09;99967.41;;;8.30;67.98
68654;BME280;55636;51.108;13.622;2023-02-19T04:37:12;99961.06;;;8.30;67.93
68654;BME280;55636;51.108;13.622;2023-02-19T04:38:14;99963.81;;;8.30;67.98
68654;BME280;55636;51.108;13.622;2023-02-19T04:39:17;99956.66;;;8.29;68.09
68654;BME280;55636;51.108;13.622;2023-02-19T04:40:20;99962.44;;;8.27;68.05
68654;BME280;55636;51.108;13.622;2023-02-19T04:41:23;99974.00;;;8.29;68.09
68654;BME280;55636;51.108;13.622;2023-02-19T04:42:27;99969.31;;;8.30;68.14
68654;BME280;55636;51.108;13.622;2023-02-19T04:43:30;99966.56;;;8.30;68.16
68654;BME280;55636;51.108;13.622;2023-02-19T04:44:33;99963.00;;;8.29;68.13
68654;BME280;55636;51.108;13.622;2023-02-19T04:45:37;99963.00;;;8.29;68.16
68654;BME280;55636;51.108;13.622;2023-02-19T04:46:41;99973.19;;;8.29;68.18
68654;BME280;55636;51.108;13.622;2023-02-19T04:47:44;99975.94;;;8.29;68.12
68654;BME280;55636;51.108;13.622;2023-02-19T04:48:46;99976.75;;;8.29;68.19
68654;BME280;55636;51.108;13.622;2023-02-19T04:49:48;99973.19;;;8.29;68.24
68654;BME280;55636;51.108;13.622;2023-02-19T04:50:51;99971.00;;;8.31;68.33
68654;BME280;55636;51.108;13.622;2023-02-19T04:51:53;99965.47;;;8.31;68.41
68654;BME280;55636;51.108;13.622;2023-02-19T04:52:55;99968.22;;;8.31;68.43
68654;BME280;55636;51.108;13.622;2023-02-19T04:53:57;99966.56;;;8.30;68.54
68654;BME280;55636;51.108;13.622;2023-02-19T04:55:00;99966.56;;;8.30;68.50
68654;BME280;55636;51.108;13.622;2023-02-19T04:56:07;99971.25;;;8.29;68.53
68654;BME280;55636;51.108;13.622;2023-02-19T04:57:11;99966.56;;;8.30;68.69
68654;BME280;55636;51.108;13.622;2023-02-19T04:58:13;99971.25;;;8.29;68.55
68654;BME280;55636;51.108;13.622;2023-02-19T04:59:16;99966.00;;;8.28;68.38
68654;BME280;55636;51.108;13.622;2023-02-19T05:00:19;99966.81;;;8.28;68.69
68654;BME280;55636;51.108;13.622;2023-02-19T05:01:21;99970.44;;;8.29;68.67
68654;BME280;55636;51.108;13.622;2023-02-19T05:02:24;99970.69;;;8.27;68.68
68654;BME280;55636;51.108;13.622;2023-02-19T05:03:26;99969.84;;;8.27;68.78
68654;BME280;55636;51.108;13.622;2023-02-19T05:04:28;99981.69;;;8.27;68.70
68654;BME280;55636;51.108;13.622;2023-02-19T05:05:30;99968.75;;;8.28;68.85
68654;BME280;55636;51.108;13.622;2023-02-19T05:06:33;99979.16;;;8.26;69.00
68654;BME280;55636;51.108;13.622;2023-02-19T05:07:35;99973.09;;;8.24;69.04
68654;BME280;55636;51.108;13.622;2023-02-19T05:08:39;99975.28;;;8.21;69.12
68654;BME280;55636;51.108;13.622;2023-02-19T05:09:41;99977.75;;;8.23;69.09
68654;BME280;55636;51.108;13.622;2023-02-19T05:10:44;99979.09;;;8.20;69.16
68654;BME280;55636;51.108;13.622;2023-02-19T05:11:46;99982.09;;;8.19;69.10
68654;BME280;55636;51.108;13.622;2023-02-19T05:12:48;99985.72;;;8.19;69.03
68654;BME280;55636;51.108;13.622;2023-02-19T05:13:51;99981.84;;;8.20;68.97
68654;BME280;55636;51.108;13.622;2023-02-19T05:14:53;99985.72;;;8.19;69.00
68654;BME280;55636;51.108;13.622;2023-02-19T05:15:58;99995.06;;;8.18;69.20
68654;BME280;55636;51.108;13.622;2023-02-19T05:17:02;99978.28;;;8.20;68.98
68654;BME280;55636;51.108;13.622;2023-02-19T05:18:04;99987.34;;;8.20;68.98
68654;BME280;55636;51.108;13.622;2023-02-19T05:19:12;99988.22;;;8.21;68.92
68654;BME280;55636;51.108;13.622;2023-02-19T05:20:14;99986.78;;;8.18;68.95
68654;BME280;55636;51.108;13.622;2023-02-19T05:21:17;99982.38;;;8.17;69.13
68654;BME280;55636;51.108;13.622;2023-02-19T05:22:19;99988.69;;;8.18;68.98
68654;BME280;55636;51.108;13.622;2023-02-19T05:23:22;99987.63;;;8.19;69.08
68654;BME280;55636;51.108;13.622;2023-02-19T05:24:27;99988.69;;;8.18;69.21
68654;BME280;55636;51.108;13.622;2023-02-19T05:25:30;99986.78;;;8.18;69.22
68654;BME280;55636;51.108;13.622;2023-02-19T05:26:34;99982.38;;;8.17;69.23
68654;BME280;55636;51.108;13.622;2023-02-19T05:27:36;99984.31;;;8.17;69.32
68654;BME280;55636;51.108;13.622;2023-02-19T05:28:38;99988.38;;;8.14;69.43
68654;BME280;55636;51.108;13.622;2023-02-19T05:29:41;99984.78;;;8.14;69.37
68654;BME280;55636;51.108;13.622;2023-02-19T05:30:48;99992.78;;;8.15;69.50
68654;BME280;55636;51.108;13.622;2023-02-19T05:31:51;99966.38;;;8.14;69.40
68654;BME280;55636;51.108;13.622;2023-02-19T05:32:53;99977.06;;;8.11;69.53
68654;BME280;55636;51.108;13.622;2023-02-19T05:33:55;99976.19;;;8.10;69.58
68654;BME280;55636;51.108;13.622;2023-02-19T05:34:58;99981.72;;;8.10;69.42
68654;BME280;55636;51.108;13.622;2023-02-19T05:36:07;99981.72;;;8.10;69.44
68654;BME280;55636;51.108;13.622;2023-02-19T05:37:10;99979.81;;;8.11;69.34
68654;BME280;55636;51.108;13.622;2023-02-19T05:38:13;99988.06;;;8.11;69.33
68654;BME280;55636;51.108;13.622;2023-02-19T05:39:17;99980.06;;;8.09;69.34
68654;BME280;55636;51.108;13.622;2023-02-19T05:40:19;99973.44;;;8.10;69.12
68654;BME280;55636;51.108;13.622;2023-02-19T05:41:24;99973.44;;;8.10;69.31
68654;BME280;55636;51.108;13.622;2023-02-19T05:42:26;99978.13;;;8.10;69.19
68654;BME280;55636;51.108;13.622;2023-02-19T05:43:29;99973.72;;;8.09;69.13
68654;BME280;55636;51.108;13.622;2023-02-19T05:44:31;99974.56;;;8.09;69.05
68654;BME280;55636;51.108;13.622;2023-02-19T05:45:36;99972.63;;;8.10;69.02
68654;BME280;55636;51.108;13.622;2023-02-19T05:46:38;99984.72;;;8.09;69.02
68654;BME280;55636;51.108;13.622;2023-02-19T05:47:40;99972.28;;;8.06;69.07
68654;BME280;55636;51.108;13.622;2023-02-19T05:48:43;99970.41;;;8.07;69.21
68654;BME280;55636;51.108;13.622;2023-02-19T05:49:45;99976.97;;;8.05;69.04
68654;BME280;55636;51.108;13.622;2023-02-19T05:50:49;99974.22;;;8.05;69.03
68654;BME280;55636;51.108;13.622;2023-02-19T05:51:51;99975.06;;;8.06;69.08
68654;BME280;55636;51.108;13.622;2023-02-19T05:52:55;99981.63;;;8.05;69.07
68654;BME280;55636;51.108;13.622;2023-02-19T05:53:57;99979.41;;;8.02;69.20
68654;BME280;55636;51.108;13.622;2023-02-19T05:54:59;99989.31;;;8.03;69.01
68654;BME280;55636;51.108;13.622;2023-02-19T05:56:02;100002.00;;;8.04;68.97
68654;BME280;55636;51.108;13.622;2023-02-19T05:57:04;100008.06;;;8.06;69.01
68654;BME280;55636;51.108;13.622;2023-02-19T05:58:06;99999.00;;;8.05;68.86
68654;BME280;55636;51.108;13.622;2023-02-19T05:59:16;99993.50;;;8.05;68.92
68654;BME280;55636;51.108;13.622;2023-02-19T06:00:19;99994.00;;;8.02;68.97
68654;BME280;55636;51.108;13.622;2023-02-19T06:01:24;99991.81;;;8.04;68.89
68654;BME280;55636;51.108;13.622;2023-02-19T06:02:26;99992.31;;;8.01;69.08
68654;BME280;55636;51.108;13.622;2023-02-19T06:03:28;99996.16;;;8.00;69.14
68654;BME280;55636;51.108;13.622;2023-02-19T06:04:31;100006.09;;;8.01;69.12
68654;BME280;55636;51.108;13.622;2023-02-19T06:05:36;100000.59;;;8.01;69.04
68654;BME280;55636;51.108;13.622;2023-02-19T06:06:39;100004.16;;;8.02;69.10
68654;BME280;55636;51.108;13.622;2023-02-19T06:07:41;100009.66;;;8.02;69.11
68654;BME280;55636;51.108;13.622;2023-02-19T06:08:46;100001.41;;;8.02;69.30